createdAt,value
2023-12-30T00:00:52.141Z,17.00
2023-12-30T00:03:36.753Z,19.30
2023-12-30T00:06:05.369Z,15.90
2023-12-30T00:08:33.693Z,15.50
2023-12-30T00:11:01.889Z,16.40
2023-12-30T00:13:30.149Z,17.60
2023-12-30T00:15:58.467Z,15.30
2023-12-30T00:18:26.821Z,15.90
2023-12-30T00:20:55.173Z,15.40
2023-12-30T00:23:24.012Z,15.80
2023-12-30T00:25:54.920Z,15.60
2023-12-30T00:28:23.202Z,17.70
2023-12-30T00:30:51.710Z,16.70
2023-12-30T00:33:20.034Z,16.00
2023-12-30T00:35:48.418Z,15.00
2023-12-30T00:38:23.832Z,13.10
2023-12-30T00:40:52.894Z,13.30
2023-12-30T00:43:21.112Z,11.30
2023-12-30T00:45:49.755Z,13.00
2023-12-30T00:48:18.186Z,12.20
2023-12-30T00:50:47.362Z,12.30
2023-12-30T00:53:16.388Z,12.30
2023-12-30T00:55:44.607Z,12.40
2023-12-30T00:58:12.869Z,12.40
2023-12-30T01:00:41.191Z,12.10
2023-12-30T01:03:09.895Z,12.50
2023-12-30T01:05:38.490Z,11.60
2023-12-30T01:08:07.314Z,11.90
2023-12-30T01:13:05.184Z,12.30
2023-12-30T01:15:34.686Z,12.60
2023-12-30T01:18:04.321Z,12.10
2023-12-30T01:20:32.627Z,11.30
2023-12-30T01:23:01.161Z,11.80
2023-12-30T01:25:29.790Z,10.50
2023-12-30T01:27:58.107Z,11.20
2023-12-30T01:30:26.677Z,11.20
2023-12-30T01:32:55.809Z,12.00
2023-12-30T01:35:24.257Z,10.70
2023-12-30T01:37:52.606Z,10.00
2023-12-30T01:40:20.984Z,10.20
2023-12-30T01:42:49.377Z,11.40
2023-12-30T01:45:17.641Z,10.60
2023-12-30T01:47:46.950Z,12.10
2023-12-30T01:50:16.794Z,11.70
2023-12-30T01:52:47.607Z,12.70
2023-12-30T01:55:17.549Z,12.80
2023-12-30T01:57:47.482Z,12.40
2023-12-30T02:00:21.922Z,11.10
2023-12-30T02:02:51.402Z,11.00
2023-12-30T02:05:19.839Z,10.40
2023-12-30T02:07:48.962Z,11.20
2023-12-30T02:10:17.472Z,11.50
2023-12-30T02:12:45.831Z,11.40
2023-12-30T02:15:26.196Z,11.10
2023-12-30T02:17:57.825Z,10.90
2023-12-30T02:20:26.547Z,10.20
2023-12-30T02:22:54.891Z,10.30
2023-12-30T02:25:23.472Z,10.50
2023-12-30T02:27:51.734Z,9.70
2023-12-30T02:30:20.108Z,10.60
2023-12-30T02:32:48.461Z,10.50
2023-12-30T02:35:16.930Z,8.90
2023-12-30T02:37:46.491Z,8.80
2023-12-30T02:40:15.411Z,10.00
2023-12-30T02:42:43.739Z,9.30
2023-12-30T02:45:13.031Z,9.00
2023-12-30T02:47:41.262Z,10.10
2023-12-30T02:50:10.210Z,10.10
2023-12-30T02:55:07.613Z,8.10
2023-12-30T02:57:48.178Z,9.10
2023-12-30T03:00:19.455Z,9.70
2023-12-30T03:02:48.759Z,9.00
2023-12-30T03:05:17.268Z,8.40
2023-12-30T03:07:45.712Z,9.50
2023-12-30T03:10:14.103Z,9.60
2023-12-30T03:15:11.107Z,9.50
2023-12-30T03:17:39.476Z,9.70
2023-12-30T03:20:11.526Z,9.30
2023-12-30T03:22:40.077Z,13.50
2023-12-30T03:25:08.862Z,9.80
2023-12-30T03:27:38.228Z,9.50
2023-12-30T03:30:07.498Z,10.60
2023-12-30T03:32:35.750Z,11.30
2023-12-30T03:35:04.850Z,9.40
2023-12-30T03:37:33.331Z,10.20
2023-12-30T03:40:01.764Z,9.90
2023-12-30T03:42:30.333Z,10.40
2023-12-30T03:44:58.984Z,10.00
2023-12-30T03:47:27.217Z,10.20
2023-12-30T03:49:55.436Z,10.30
2023-12-30T03:52:23.746Z,10.10
2023-12-30T03:54:53.723Z,10.80
2023-12-30T03:57:23.666Z,13.80
2023-12-30T03:59:51.889Z,14.10
2023-12-30T04:02:22.843Z,17.70
2023-12-30T04:04:51.485Z,15.40
2023-12-30T04:07:19.703Z,15.50
2023-12-30T04:09:48.383Z,15.90
2023-12-30T04:12:16.800Z,15.30
2023-12-30T04:14:45.420Z,20.50
2023-12-30T04:17:13.940Z,22.10
2023-12-30T04:19:42.165Z,19.50
2023-12-30T04:22:10.423Z,19.40
2023-12-30T04:24:38.600Z,16.00
2023-12-30T04:27:06.925Z,12.90
2023-12-30T04:29:35.143Z,9.90
2023-12-30T04:32:03.472Z,10.20
2023-12-30T04:34:31.741Z,9.60
2023-12-30T04:37:00.020Z,9.40
2023-12-30T04:39:28.226Z,10.10
2023-12-30T04:42:00.756Z,10.00
2023-12-30T04:44:29.184Z,10.00
2023-12-30T04:46:58.006Z,9.10
2023-12-30T04:51:54.874Z,8.60
2023-12-30T04:54:24.272Z,8.60
2023-12-30T04:56:53.430Z,9.90
2023-12-30T04:59:22.012Z,9.00
2023-12-30T05:01:50.274Z,10.00
2023-12-30T05:04:18.574Z,9.20
2023-12-30T05:06:46.876Z,9.60
2023-12-30T05:09:16.043Z,10.20
2023-12-30T05:11:45.939Z,12.80
2023-12-30T05:14:14.261Z,12.70
2023-12-30T05:16:45.530Z,9.70
2023-12-30T05:19:14.519Z,9.20
2023-12-30T05:21:43.224Z,9.70
2023-12-30T05:24:11.745Z,8.70
2023-12-30T05:26:39.961Z,9.20
2023-12-30T05:29:08.486Z,7.90
2023-12-30T05:31:37.145Z,8.80
2023-12-30T05:34:05.884Z,9.10
2023-12-30T05:39:02.273Z,9.60
2023-12-30T05:41:30.893Z,10.20
2023-12-30T05:43:59.224Z,9.80
2023-12-30T05:46:28.162Z,9.60
2023-12-30T05:48:56.605Z,9.90
2023-12-30T05:51:25.178Z,10.90
2023-12-30T05:53:53.693Z,10.30
2023-12-30T05:56:23.736Z,15.40
2023-12-30T05:58:55.312Z,14.20
2023-12-30T06:01:23.604Z,20.00
2023-12-30T06:03:51.980Z,21.10
2023-12-30T06:06:21.476Z,15.20
2023-12-30T06:08:49.771Z,10.80
2023-12-30T06:11:18.970Z,9.00
2023-12-30T06:13:47.634Z,9.00
2023-12-30T06:16:16.072Z,9.70
2023-12-30T06:18:44.472Z,9.50
2023-12-30T06:21:12.848Z,8.50
2023-12-30T06:23:41.074Z,9.90
2023-12-30T06:26:09.288Z,9.50
2023-12-30T06:28:37.778Z,7.90
2023-12-30T06:31:06.114Z,14.10
2023-12-30T06:33:34.701Z,13.00
2023-12-30T06:36:03.080Z,11.30
2023-12-30T06:38:31.301Z,10.60
2023-12-30T06:40:59.614Z,11.50
2023-12-30T06:43:27.770Z,11.20
2023-12-30T06:45:56.130Z,9.30
2023-12-30T06:48:25.207Z,8.20
2023-12-30T06:50:55.626Z,9.20
2023-12-30T06:53:24.332Z,11.80
2023-12-30T06:55:52.600Z,10.80
2023-12-30T06:58:20.912Z,9.00
2023-12-30T07:00:49.238Z,9.40
2023-12-30T07:03:17.623Z,8.30
2023-12-30T07:05:45.965Z,8.10
2023-12-30T07:08:14.362Z,8.50
2023-12-30T07:10:42.635Z,8.80
2023-12-30T07:13:10.934Z,10.40
2023-12-30T07:15:39.216Z,11.00
2023-12-30T07:18:08.242Z,10.70
2023-12-30T07:20:37.064Z,11.20
2023-12-30T07:23:07.054Z,9.70
2023-12-30T07:25:35.570Z,9.10
2023-12-30T07:28:04.416Z,9.60
2023-12-30T07:33:01.117Z,9.20
2023-12-30T07:35:29.493Z,8.70
2023-12-30T07:37:58.045Z,10.20
2023-12-30T07:40:26.493Z,11.10
2023-12-30T07:42:54.899Z,11.80
2023-12-30T07:45:23.283Z,11.10
2023-12-30T07:47:52.050Z,11.80
2023-12-30T07:50:20.424Z,9.80
2023-12-30T07:52:49.487Z,10.40
2023-12-30T07:55:18.312Z,8.90
2023-12-30T08:00:15.747Z,8.60
2023-12-30T08:02:45.862Z,9.20
2023-12-30T08:05:14.408Z,10.50
2023-12-30T08:07:42.823Z,9.10
2023-12-30T08:10:12.786Z,9.00
2023-12-30T08:12:41.139Z,9.10
2023-12-30T08:15:12.367Z,14.20
2023-12-30T08:17:41.178Z,11.20
2023-12-30T08:20:10.638Z,9.60
2023-12-30T08:22:39.028Z,9.60
2023-12-30T08:25:08.952Z,8.80
2023-12-30T08:27:37.870Z,9.70
2023-12-30T08:32:34.746Z,9.20
2023-12-30T08:35:04.611Z,9.20
2023-12-30T08:37:32.916Z,9.30
2023-12-30T08:40:01.555Z,10.60
2023-12-30T08:42:35.604Z,7.80
2023-12-30T08:45:07.582Z,8.70
2023-12-30T08:47:36.276Z,8.30
2023-12-30T08:52:33.895Z,8.70
2023-12-30T08:55:02.377Z,8.30
2023-12-30T08:57:30.772Z,7.90
2023-12-30T08:59:59.001Z,8.50
2023-12-30T09:02:27.213Z,8.30
2023-12-30T09:04:57.909Z,8.80
2023-12-30T09:07:26.231Z,8.30
2023-12-30T09:09:54.615Z,7.80
2023-12-30T09:12:22.908Z,6.80
2023-12-30T09:14:51.540Z,7.70
2023-12-30T09:17:19.774Z,7.40
2023-12-30T09:19:48.188Z,6.50
2023-12-30T09:22:17.611Z,7.00
2023-12-30T09:24:47.218Z,7.50
2023-12-30T09:27:15.841Z,6.50
2023-12-30T09:29:44.167Z,6.70
2023-12-30T09:32:12.488Z,6.60
2023-12-30T09:34:44.152Z,7.10
2023-12-30T09:37:13.611Z,7.20
2023-12-30T09:39:43.505Z,6.90
2023-12-30T09:42:11.786Z,6.70
2023-12-30T09:44:41.266Z,6.90
2023-12-30T09:47:12.494Z,7.30
2023-12-30T09:49:42.128Z,7.50
2023-12-30T09:52:10.618Z,7.50
2023-12-30T09:54:48.299Z,8.10
2023-12-30T09:57:18.276Z,8.10
2023-12-30T10:02:16.922Z,6.60
2023-12-30T10:04:46.335Z,6.70
2023-12-30T10:07:15.091Z,7.30
2023-12-30T10:09:44.039Z,6.90
2023-12-30T10:12:12.519Z,7.70
2023-12-30T10:14:40.730Z,7.40
2023-12-30T10:17:09.352Z,8.90
2023-12-30T10:19:37.741Z,7.60
2023-12-30T10:24:34.412Z,7.60
2023-12-30T10:27:06.050Z,8.50
2023-12-30T10:29:46.394Z,8.50
2023-12-30T10:32:22.493Z,7.20
2023-12-30T10:34:51.324Z,7.70
2023-12-30T10:37:24.416Z,8.20
2023-12-30T10:39:56.179Z,8.00
2023-12-30T10:42:24.636Z,7.80
2023-12-30T10:44:53.087Z,6.90
2023-12-30T10:47:23.008Z,6.60
2023-12-30T10:49:59.015Z,7.00
2023-12-30T10:52:28.899Z,7.50
2023-12-30T10:55:10.197Z,7.00
2023-12-30T10:57:42.087Z,6.80
2023-12-30T11:00:11.068Z,6.00
2023-12-30T11:02:40.237Z,6.40
2023-12-30T11:05:16.796Z,6.10
2023-12-30T11:07:45.736Z,5.40
2023-12-30T11:10:23.991Z,6.40
2023-12-30T11:12:54.648Z,5.60
2023-12-30T11:15:31.335Z,5.90
2023-12-30T11:18:00.927Z,6.00
2023-12-30T11:20:33.472Z,5.10
2023-12-30T11:23:04.549Z,5.90
2023-12-30T11:25:47.511Z,5.10
2023-12-30T11:28:23.515Z,4.80
2023-12-30T11:31:02.361Z,5.10
2023-12-30T11:33:30.905Z,5.20
2023-12-30T11:36:01.784Z,5.30
2023-12-30T11:38:32.738Z,4.60
2023-12-30T11:41:02.685Z,4.80
2023-12-30T11:43:31.596Z,5.20
2023-12-30T11:46:01.396Z,5.30
2023-12-30T11:48:30.976Z,5.80
2023-12-30T11:50:59.317Z,5.50
2023-12-30T11:53:27.937Z,4.90
2023-12-30T11:58:24.947Z,6.60
2023-12-30T12:03:21.515Z,5.80
2023-12-30T12:05:50.636Z,6.00
2023-12-30T12:08:19.028Z,6.10
2023-12-30T12:10:48.300Z,4.70
2023-12-30T12:13:23.512Z,21.40
2023-12-30T12:15:52.958Z,16.70
2023-12-30T12:18:21.966Z,29.20
2023-12-30T12:20:51.444Z,7.70
2023-12-30T12:23:23.434Z,5.90
2023-12-30T12:25:52.008Z,5.60
2023-12-30T12:28:24.825Z,6.10
2023-12-30T12:30:53.397Z,6.30
2023-12-30T12:33:22.134Z,13.10
2023-12-30T12:35:50.566Z,11.00
2023-12-30T12:40:47.245Z,10.30
2023-12-30T12:43:16.224Z,18.80
2023-12-30T12:45:44.543Z,23.30
2023-12-30T12:50:41.290Z,32.10
2023-12-30T12:53:09.509Z,25.70
2023-12-30T12:58:06.669Z,18.00
2023-12-30T13:03:03.242Z,11.50
2023-12-30T13:05:32.002Z,10.60
2023-12-30T13:08:00.266Z,14.00
2023-12-30T13:10:34.597Z,7.90
2023-12-30T13:15:32.114Z,8.20
2023-12-30T13:18:01.187Z,7.70
2023-12-30T13:20:29.759Z,7.80
2023-12-30T13:25:31.444Z,7.80
2023-12-30T13:28:00.329Z,7.20
2023-12-30T13:30:29.309Z,6.90
2023-12-30T13:32:59.178Z,9.50
2023-12-30T13:35:32.023Z,8.10
2023-12-30T13:38:00.342Z,8.50
2023-12-30T13:40:29.499Z,8.30
2023-12-30T13:43:02.314Z,6.80
2023-12-30T13:45:34.298Z,7.50
2023-12-30T13:48:08.888Z,14.10
2023-12-30T13:51:03.539Z,12.00
2023-12-30T13:53:32.019Z,17.00
2023-12-30T13:56:02.558Z,16.30
2023-12-30T13:58:31.194Z,11.50
2023-12-30T14:01:01.287Z,14.80
2023-12-30T14:03:29.978Z,24.40
2023-12-30T14:05:59.749Z,9.90
2023-12-30T14:08:33.575Z,6.70
2023-12-30T14:11:08.625Z,7.10
2023-12-30T14:13:37.307Z,8.70
2023-12-30T14:16:07.240Z,10.40
2023-12-30T14:18:35.593Z,9.70
2023-12-30T14:21:04.212Z,11.20
2023-12-30T14:26:02.169Z,17.70
2023-12-30T14:28:30.419Z,18.30
2023-12-30T14:30:58.945Z,24.30
2023-12-30T14:33:27.375Z,32.80
2023-12-30T14:35:55.949Z,33.80
2023-12-30T14:38:24.170Z,37.40
2023-12-30T14:40:52.410Z,53.00
2023-12-30T14:43:20.742Z,37.50
2023-12-30T14:45:49.265Z,39.80
2023-12-30T14:48:18.165Z,26.50
2023-12-30T14:50:46.777Z,41.20
2023-12-30T14:55:43.478Z,78.40
2023-12-30T14:58:12.275Z,52.60
2023-12-30T15:00:41.293Z,56.10
2023-12-30T15:03:09.730Z,53.70
2023-12-30T15:05:38.016Z,46.40
2023-12-30T15:08:07.328Z,39.90
2023-12-30T15:10:35.559Z,27.10
2023-12-30T15:13:05.552Z,42.30
2023-12-30T15:15:34.201Z,43.10
2023-12-30T15:18:03.573Z,42.10
2023-12-30T15:20:32.645Z,49.90
2023-12-30T15:23:01.084Z,46.00
2023-12-30T15:27:58.029Z,41.40
2023-12-30T15:30:26.373Z,47.80
2023-12-30T15:32:56.483Z,46.20
2023-12-30T15:35:25.395Z,50.30
2023-12-30T15:37:53.734Z,51.10
2023-12-30T15:40:22.081Z,47.80
2023-12-30T15:42:51.342Z,37.10
2023-12-30T15:45:22.186Z,31.90
2023-12-30T15:47:50.737Z,29.10
2023-12-30T15:52:47.959Z,34.30
2023-12-30T15:55:16.701Z,38.00
2023-12-30T16:00:14.405Z,20.00
2023-12-30T16:02:42.768Z,17.70
2023-12-30T16:05:11.157Z,14.50
2023-12-30T16:07:39.920Z,11.40
2023-12-30T16:12:38.220Z,18.60
2023-12-30T16:15:07.389Z,17.70
2023-12-30T16:17:35.698Z,27.30
2023-12-30T16:20:05.440Z,24.20
2023-12-30T16:22:35.084Z,18.30
2023-12-30T16:25:03.580Z,20.70
2023-12-30T16:27:31.848Z,47.50
2023-12-30T16:30:00.067Z,48.90
2023-12-30T16:32:28.875Z,24.40
2023-12-30T16:34:57.403Z,27.90
2023-12-30T16:37:26.201Z,26.20
2023-12-30T16:42:23.884Z,13.40
2023-12-30T16:44:52.505Z,18.40
2023-12-30T16:49:49.066Z,32.30
2023-12-30T16:52:17.690Z,30.70
2023-12-30T16:54:46.889Z,28.30
2023-12-30T16:57:15.277Z,28.90
2023-12-30T16:59:43.531Z,30.40
2023-12-30T17:02:11.903Z,33.10
2023-12-30T17:04:40.458Z,28.20
2023-12-30T17:07:08.729Z,28.60
2023-12-30T17:09:37.118Z,31.00
2023-12-30T17:12:05.937Z,35.10
2023-12-30T17:14:34.460Z,27.00
2023-12-30T17:17:02.678Z,23.60
2023-12-30T17:19:30.933Z,20.90
2023-12-30T17:21:59.226Z,24.10
2023-12-30T17:24:27.441Z,26.40
2023-12-30T17:26:55.654Z,22.40
2023-12-30T17:29:24.090Z,22.00
2023-12-30T17:31:57.006Z,29.40
2023-12-30T17:34:25.363Z,31.40
2023-12-30T17:36:53.560Z,37.80
2023-12-30T17:39:21.771Z,43.60
2023-12-30T17:41:49.892Z,20.40
2023-12-30T17:44:18.621Z,19.80
2023-12-30T17:46:46.914Z,23.30
2023-12-30T17:49:15.804Z,20.70
2023-12-30T17:54:12.499Z,27.40
2023-12-30T17:56:41.210Z,37.30
2023-12-30T17:59:09.341Z,25.80
2023-12-30T18:01:37.600Z,18.60
2023-12-30T18:04:05.956Z,13.50
2023-12-30T18:06:34.938Z,14.20
2023-12-30T18:09:07.076Z,12.50
2023-12-30T18:11:36.970Z,14.00
2023-12-30T18:14:05.184Z,15.30
2023-12-30T18:16:33.749Z,19.10
2023-12-30T18:19:02.186Z,25.00
2023-12-30T18:21:30.450Z,25.30
2023-12-30T18:23:58.668Z,27.40
2023-12-30T18:26:26.895Z,20.10
2023-12-30T18:28:55.112Z,21.70
2023-12-30T18:31:23.263Z,19.00
2023-12-30T18:33:51.500Z,17.30
2023-12-30T18:36:19.776Z,18.80
2023-12-30T18:38:47.991Z,26.90
2023-12-30T18:41:16.216Z,27.50
2023-12-30T18:43:44.668Z,28.70
2023-12-30T18:46:13.005Z,28.30
2023-12-30T18:48:41.365Z,27.60
2023-12-30T18:51:09.816Z,28.20
2023-12-30T18:53:38.018Z,29.80
2023-12-30T18:56:06.862Z,28.20
2023-12-30T18:58:35.108Z,23.90
2023-12-30T19:01:03.705Z,22.20
2023-12-30T19:03:32.027Z,16.60
2023-12-30T19:06:00.351Z,18.70
2023-12-30T19:08:33.295Z,19.70
2023-12-30T19:11:01.686Z,17.90
2023-12-30T19:13:29.922Z,18.10
2023-12-30T19:15:58.125Z,18.80
2023-12-30T19:18:26.705Z,18.50
2023-12-30T19:20:56.973Z,19.00
2023-12-30T19:23:25.794Z,20.00
2023-12-30T19:28:22.385Z,16.20
2023-12-30T19:30:51.568Z,20.60
2023-12-30T19:33:20.333Z,16.60
2023-12-30T19:35:48.905Z,17.80
2023-12-30T19:38:17.730Z,19.50
2023-12-30T19:40:47.210Z,18.10
2023-12-30T19:43:15.929Z,20.20
2023-12-30T19:45:44.458Z,17.70
2023-12-30T19:48:13.094Z,20.70
2023-12-30T19:50:44.595Z,19.60
2023-12-30T19:53:16.997Z,20.00
2023-12-30T19:55:46.496Z,20.40
2023-12-30T19:58:14.772Z,22.80
2023-12-30T20:00:43.062Z,20.40
2023-12-30T20:03:14.084Z,19.40
2023-12-30T20:05:42.319Z,18.30
2023-12-30T20:08:10.532Z,20.70
2023-12-30T20:10:38.777Z,19.20
2023-12-30T20:13:07.644Z,19.00
2023-12-30T20:18:04.830Z,21.20
2023-12-30T20:20:33.242Z,20.50
2023-12-30T20:23:01.791Z,21.50
2023-12-30T20:25:32.168Z,31.70
2023-12-30T20:28:01.899Z,25.20
2023-12-30T20:30:30.253Z,24.90
2023-12-30T20:32:58.729Z,23.30
2023-12-30T20:35:27.105Z,22.30
2023-12-30T20:37:55.278Z,21.70
2023-12-30T20:40:23.539Z,21.00
2023-12-30T20:42:51.819Z,42.10
2023-12-30T20:45:20.039Z,27.00
2023-12-30T20:47:48.418Z,25.90
2023-12-30T20:50:16.983Z,26.10
2023-12-30T20:52:45.269Z,25.60
2023-12-30T20:55:15.438Z,36.00
2023-12-30T20:57:44.764Z,24.30
2023-12-30T21:00:14.383Z,21.50
2023-12-30T21:02:43.510Z,28.10
2023-12-30T21:05:11.729Z,25.00
2023-12-30T21:07:40.079Z,20.20
2023-12-30T21:10:09.111Z,21.90
2023-12-30T21:12:37.593Z,19.20
2023-12-30T21:15:06.412Z,20.60
2023-12-30T21:20:02.769Z,22.50
2023-12-30T21:22:30.992Z,25.40
2023-12-30T21:25:01.213Z,24.00
2023-12-30T21:27:29.742Z,24.70
2023-12-30T21:29:57.940Z,26.30
2023-12-30T21:32:26.453Z,23.90
2023-12-30T21:34:55.394Z,26.30
2023-12-30T21:37:32.210Z,24.60
2023-12-30T21:40:04.596Z,27.40
2023-12-30T21:42:32.791Z,22.10
2023-12-30T21:45:01.015Z,18.80
2023-12-30T21:47:29.261Z,22.20
2023-12-30T21:49:58.061Z,19.30
2023-12-30T21:52:26.429Z,20.80
2023-12-30T21:54:54.654Z,21.80
2023-12-30T21:57:22.813Z,20.50
2023-12-30T21:59:51.071Z,24.20
2023-12-30T22:02:19.355Z,25.00
2023-12-30T22:04:47.584Z,22.70
2023-12-30T22:07:16.008Z,20.60
2023-12-30T22:09:44.312Z,20.50
2023-12-30T22:12:12.632Z,18.30
2023-12-30T22:14:40.954Z,20.40
2023-12-30T22:17:11.331Z,19.80
2023-12-30T22:19:40.227Z,18.60
2023-12-30T22:22:09.674Z,19.60
2023-12-30T22:24:37.952Z,17.80
2023-12-30T22:27:06.177Z,18.90
2023-12-30T22:29:34.391Z,19.80
2023-12-30T22:32:03.419Z,18.80
2023-12-30T22:34:31.691Z,19.20
2023-12-30T22:36:59.958Z,19.20
2023-12-30T22:39:28.181Z,18.60
2023-12-30T22:41:57.007Z,18.80
2023-12-30T22:46:53.802Z,17.20
2023-12-30T22:49:22.243Z,19.80
2023-12-30T22:51:51.885Z,21.20
2023-12-30T22:54:20.214Z,20.30
2023-12-30T22:56:48.431Z,23.60
2023-12-30T22:59:17.479Z,19.70
2023-12-30T23:01:45.732Z,18.90
2023-12-30T23:04:14.576Z,19.60
2023-12-30T23:09:13.051Z,17.50
2023-12-30T23:11:41.265Z,19.10
2023-12-30T23:14:09.490Z,19.10
2023-12-30T23:16:37.736Z,19.10
2023-12-30T23:19:06.130Z,17.80
2023-12-30T23:21:34.483Z,18.70
2023-12-30T23:24:04.273Z,19.20
2023-12-30T23:26:32.393Z,17.90
2023-12-30T23:29:00.619Z,19.20
2023-12-30T23:31:28.851Z,21.00
2023-12-30T23:33:57.124Z,20.00
2023-12-30T23:36:25.472Z,21.10
2023-12-30T23:38:53.700Z,21.60
2023-12-30T23:41:21.837Z,19.80
2023-12-30T23:43:50.186Z,19.50
2023-12-30T23:46:18.564Z,19.00
2023-12-30T23:48:46.788Z,17.80
2023-12-30T23:51:15.011Z,18.00
2023-12-30T23:53:43.215Z,20.30
2023-12-30T23:56:11.431Z,19.00
2023-12-30T23:58:39.701Z,19.00
